Aranspass, Texas
Current Conditions -  °F | °C
As of 11:55 AM on Friday 28 Nov 2014 (Local Time) from KTFP Reporting Station
Clear Clear  
Wind Chill: 74°   Ceiling: Unl
Heat Index: 74°   Visibility: 10mi
Dew Point: 53°   Wind: 14mph
Humidity: 47%   Direction: 190°S
Pressure: 30.27"   Gusts: 17mph
Location:  27.9399°N, 97.1805°W
Report Text: KTFP 281755Z AUTO 19012G15KT 10SM CLR 23/11 A3027 RMK AO2 T02330114
Loading
Personal Weather Stations






























Interactive Weather Map New forecast layout! Learn more

10-Day Weather Forecast

Advertisements
Track Severe Weather on mobile